createdAt,value
2022-12-05T19:19:52.621Z,10.50
2022-12-05T19:20:52.547Z,10.40
2022-12-05T19:21:52.488Z,10.50
2022-12-05T19:22:56.373Z,10.80
2022-12-05T19:23:53.361Z,11.00
2022-12-05T19:24:52.308Z,10.70
2022-12-05T19:25:52.246Z,10.40
2022-12-05T19:26:52.170Z,10.70
2022-12-05T19:27:52.100Z,10.60
2022-12-05T19:28:52.055Z,11.70
2022-12-05T19:29:51.981Z,12.40
2022-12-05T19:30:51.900Z,11.40
2022-12-05T19:31:51.889Z,10.90
2022-12-05T19:32:51.745Z,10.70
2022-12-05T19:33:51.671Z,11.10
2022-12-05T19:34:51.580Z,11.20
2022-12-05T19:35:51.539Z,12.00
2022-12-05T19:36:51.456Z,10.90
2022-12-05T19:37:51.378Z,11.60
2022-12-05T19:38:51.300Z,14.70
2022-12-05T19:39:51.239Z,13.40
2022-12-05T19:40:51.172Z,12.20
2022-12-05T19:41:51.090Z,11.70
2022-12-05T19:42:51.024Z,12.80
2022-12-05T19:43:50.963Z,14.10
2022-12-05T19:44:50.875Z,13.00
2022-12-05T19:45:50.858Z,13.50
2022-12-05T19:46:50.725Z,12.80
2022-12-05T19:47:50.652Z,11.70
2022-12-05T19:48:50.557Z,11.20
2022-12-05T19:49:50.483Z,10.70
2022-12-05T19:50:50.403Z,10.90
2022-12-05T19:51:50.322Z,11.10
2022-12-05T19:52:50.234Z,10.60
2022-12-05T19:53:50.164Z,10.90
2022-12-05T19:54:50.084Z,11.50
2022-12-05T19:55:50.014Z,11.10
2022-12-05T19:56:49.921Z,11.40
2022-12-05T19:57:49.846Z,12.10
2022-12-05T19:58:49.765Z,12.20
2022-12-05T19:59:49.692Z,14.30
2022-12-05T20:00:49.650Z,15.20
2022-12-05T20:01:49.583Z,15.60
2022-12-05T20:02:50.649Z,15.50
2022-12-05T20:03:49.377Z,15.70
2022-12-05T20:04:49.282Z,16.80
2022-12-05T20:05:49.217Z,15.60
2022-12-05T20:06:49.137Z,16.30
2022-12-05T20:07:49.105Z,15.40
2022-12-05T20:08:48.976Z,15.50
2022-12-05T20:09:48.900Z,15.90
2022-12-05T20:10:48.809Z,16.20
2022-12-05T20:11:54.695Z,16.60
2022-12-05T20:12:49.645Z,16.30
2022-12-05T20:13:48.705Z,16.30
2022-12-05T20:14:48.468Z,15.80
2022-12-05T20:15:48.396Z,16.10
2022-12-05T20:16:48.394Z,15.20
2022-12-05T20:17:52.991Z,16.20
2022-12-05T20:18:49.150Z,16.40
2022-12-05T20:19:48.061Z,15.70
2022-12-05T20:20:47.979Z,15.60
2022-12-05T20:21:47.908Z,15.90
2022-12-05T20:22:47.828Z,16.70
2022-12-05T20:23:47.738Z,15.70
2022-12-05T20:24:47.648Z,15.90
2022-12-05T20:25:47.562Z,16.40
2022-12-05T20:26:47.492Z,15.10
2022-12-05T20:27:47.412Z,14.60
2022-12-05T20:28:47.322Z,15.20
2022-12-05T20:29:47.218Z,15.10
2022-12-05T20:30:47.161Z,14.50
2022-12-05T20:31:47.052Z,15.60
2022-12-05T20:32:46.951Z,14.80
2022-12-05T20:33:46.900Z,14.80
2022-12-05T20:34:46.801Z,15.90
2022-12-05T20:35:46.711Z,16.30
2022-12-05T20:36:46.620Z,15.10
2022-12-05T20:37:46.541Z,16.10
2022-12-05T20:38:46.440Z,15.50
2022-12-05T20:39:46.391Z,15.70
2022-12-05T20:40:46.281Z,15.70
2022-12-05T20:41:46.246Z,16.40
2022-12-05T20:42:46.962Z,15.50
2022-12-05T20:43:46.002Z,16.80
2022-12-05T20:44:45.933Z,16.70
2022-12-05T20:45:45.883Z,15.70
2022-12-05T20:46:45.740Z,15.40
2022-12-05T20:47:45.661Z,15.00
2022-12-05T20:48:45.562Z,14.80
2022-12-05T20:49:45.497Z,15.20
2022-12-05T20:50:45.384Z,15.80
2022-12-05T20:51:45.284Z,15.60
2022-12-05T20:52:46.811Z,14.60
2022-12-05T20:53:45.104Z,15.30
2022-12-05T20:54:45.022Z,16.60
2022-12-05T20:55:44.943Z,16.40
2022-12-05T20:56:44.843Z,15.50
2022-12-05T20:57:44.754Z,22.40
2022-12-05T20:58:44.664Z,21.90
2022-12-05T20:59:44.575Z,172.00
2022-12-05T21:00:44.495Z,111.60
2022-12-05T21:01:44.638Z,84.00
2022-12-05T21:02:44.377Z,74.60
2022-12-05T21:03:44.258Z,75.20
2022-12-05T21:04:44.187Z,79.00
2022-12-05T21:05:44.118Z,59.30
2022-12-05T21:06:44.023Z,38.80
2022-12-05T21:07:43.951Z,28.80
2022-12-05T21:08:43.879Z,20.80
2022-12-05T21:09:43.766Z,25.10
2022-12-05T21:10:43.723Z,20.10
2022-12-05T21:11:43.617Z,21.10
2022-12-05T21:12:43.527Z,20.80
2022-12-05T21:13:43.437Z,19.10
2022-12-05T21:14:43.368Z,64.60
2022-12-05T21:15:43.320Z,23.60
2022-12-05T21:16:43.191Z,18.70
2022-12-05T21:17:43.086Z,17.20
2022-12-05T21:18:43.097Z,16.00
2022-12-05T21:19:42.909Z,16.20
2022-12-05T21:20:42.822Z,16.60
2022-12-05T21:21:42.751Z,17.60
2022-12-05T21:22:42.640Z,18.40
2022-12-05T21:23:42.549Z,18.20
2022-12-05T21:24:42.473Z,17.80
2022-12-05T21:25:42.372Z,17.70
2022-12-05T21:26:42.298Z,18.30
2022-12-05T21:27:42.190Z,18.40
2022-12-05T21:28:42.112Z,17.30
2022-12-05T21:29:42.010Z,17.50
2022-12-05T21:30:41.931Z,18.20
2022-12-05T21:31:41.892Z,17.80
2022-12-05T21:32:41.738Z,17.70
2022-12-05T21:33:41.632Z,18.50
2022-12-05T21:34:41.532Z,17.50
2022-12-05T21:35:41.450Z,18.00
2022-12-05T21:36:41.373Z,18.30
2022-12-05T21:37:41.261Z,18.00
2022-12-05T21:38:41.186Z,17.60
2022-12-05T21:39:41.075Z,18.30
2022-12-05T21:40:40.994Z,17.60
2022-12-05T21:41:40.972Z,19.20
2022-12-05T21:42:40.825Z,17.70
2022-12-05T21:43:40.715Z,17.70
2022-12-05T21:44:40.635Z,16.40
2022-12-05T21:45:44.266Z,16.60
2022-12-05T21:46:41.511Z,16.40
2022-12-05T21:47:40.371Z,16.80
2022-12-05T21:48:40.288Z,16.30
2022-12-05T21:49:40.189Z,15.60
2022-12-05T21:50:40.095Z,16.50
2022-12-05T21:51:39.999Z,15.60
2022-12-05T21:52:39.899Z,15.80
2022-12-05T21:53:39.786Z,15.80
2022-12-05T21:54:39.706Z,16.40
2022-12-05T21:55:39.610Z,15.60
2022-12-05T21:56:39.520Z,16.20
2022-12-05T21:57:39.425Z,15.50
2022-12-05T21:58:42.380Z,16.10
2022-12-05T21:59:39.207Z,16.10
2022-12-05T22:00:39.128Z,15.40
2022-12-05T22:01:39.104Z,14.80
2022-12-05T22:02:39.022Z,15.80
2022-12-05T22:03:38.827Z,15.70
2022-12-05T22:04:38.753Z,15.90
2022-12-05T22:05:38.635Z,17.00
2022-12-05T22:06:38.565Z,17.80
2022-12-05T22:07:38.545Z,15.60
2022-12-05T22:08:38.397Z,15.50
2022-12-05T22:09:38.270Z,15.70
2022-12-05T22:10:38.180Z,16.10
2022-12-05T22:11:38.086Z,15.40
2022-12-05T22:12:37.979Z,15.00
2022-12-05T22:13:37.910Z,14.50
2022-12-05T22:14:37.799Z,15.00
2022-12-05T22:15:37.827Z,13.90
2022-12-05T22:16:37.639Z,14.30
2022-12-05T22:17:37.530Z,14.70
2022-12-05T22:18:37.451Z,14.10
2022-12-05T22:19:37.339Z,14.10
2022-12-05T22:20:37.250Z,13.30
2022-12-05T22:21:37.151Z,14.30
2022-12-05T22:22:37.055Z,13.60
2022-12-05T22:23:36.951Z,14.20
2022-12-05T22:24:36.873Z,14.00
2022-12-05T22:25:36.761Z,13.40
2022-12-05T22:26:36.679Z,14.30
2022-12-05T22:27:36.561Z,13.50
2022-12-05T22:28:36.482Z,13.60
2022-12-05T22:29:36.401Z,13.10
2022-12-05T22:30:36.305Z,13.00
2022-12-05T22:31:36.280Z,13.10
2022-12-05T22:32:36.144Z,15.10
2022-12-05T22:33:36.032Z,13.40
2022-12-05T22:34:35.958Z,13.80
2022-12-05T22:35:35.846Z,14.60
2022-12-05T22:36:35.743Z,13.60
2022-12-05T22:37:35.661Z,14.00
2022-12-05T22:38:35.580Z,13.40
2022-12-05T22:39:35.504Z,13.90
2022-12-05T22:40:35.394Z,14.50
2022-12-05T22:41:35.301Z,13.30
2022-12-05T22:42:35.205Z,14.80
2022-12-05T22:43:35.125Z,14.30
2022-12-05T22:44:35.044Z,13.70
2022-12-05T22:45:34.944Z,13.10
2022-12-05T22:46:34.881Z,14.30
2022-12-05T22:47:34.757Z,13.60
2022-12-05T22:48:34.650Z,13.90
2022-12-05T22:49:34.560Z,14.20
2022-12-05T22:50:34.475Z,14.60
2022-12-05T22:51:34.366Z,14.40
2022-12-05T22:52:34.285Z,14.60
2022-12-05T22:53:34.194Z,14.30
2022-12-05T22:54:34.096Z,14.50
2022-12-05T22:55:34.001Z,14.10
2022-12-05T22:56:33.910Z,14.30
2022-12-05T22:57:33.819Z,15.40
2022-12-05T22:58:33.727Z,15.40
2022-12-05T22:59:33.634Z,16.80
2022-12-05T23:00:33.547Z,16.70
2022-12-05T23:01:33.426Z,16.40
2022-12-05T23:02:33.407Z,16.90
2022-12-05T23:03:33.288Z,16.00
2022-12-05T23:04:33.148Z,13.60
2022-12-05T23:05:33.079Z,13.60
2022-12-05T23:06:32.996Z,14.30
2022-12-05T23:07:32.941Z,15.30
2022-12-05T23:08:32.800Z,16.00
2022-12-05T23:09:32.700Z,16.00
2022-12-05T23:10:32.618Z,15.20
2022-12-05T23:11:32.508Z,14.10
2022-12-05T23:12:32.439Z,13.70
2022-12-05T23:13:32.348Z,15.10
2022-12-05T23:14:32.254Z,15.40
2022-12-05T23:15:32.170Z,14.90
2022-12-05T23:16:32.422Z,14.90
2022-12-05T23:17:31.998Z,16.00
2022-12-05T23:18:31.901Z,15.60
2022-12-05T23:19:31.811Z,15.90
2022-12-05T23:20:31.723Z,15.80
2022-12-05T23:21:31.639Z,15.10
2022-12-05T23:22:31.560Z,15.70
2022-12-05T23:23:31.461Z,16.70
2022-12-05T23:24:31.381Z,17.20
2022-12-05T23:25:31.291Z,17.40
2022-12-05T23:26:31.203Z,17.30
2022-12-05T23:27:31.102Z,18.90
2022-12-05T23:28:31.011Z,18.90
2022-12-05T23:29:30.923Z,19.30
2022-12-05T23:30:30.843Z,19.60
2022-12-05T23:31:30.835Z,19.20
2022-12-05T23:32:30.672Z,17.80
2022-12-05T23:33:30.571Z,19.20
2022-12-05T23:34:30.495Z,19.10
2022-12-05T23:35:30.395Z,19.40
2022-12-05T23:36:30.324Z,19.50
2022-12-05T23:37:30.204Z,19.30
2022-12-05T23:38:30.130Z,18.80
2022-12-05T23:39:30.044Z,19.20
2022-12-05T23:40:29.956Z,18.50
2022-12-05T23:41:29.878Z,20.10
2022-12-05T23:42:29.784Z,20.20
2022-12-05T23:43:29.676Z,19.40
2022-12-05T23:44:29.589Z,19.60
2022-12-05T23:45:29.503Z,19.90
2022-12-05T23:46:29.466Z,16.20
2022-12-05T23:47:29.315Z,16.60
2022-12-05T23:48:29.229Z,17.50
2022-12-05T23:49:29.139Z,17.90
2022-12-05T23:50:29.048Z,16.90
2022-12-05T23:51:28.953Z,18.10
2022-12-05T23:52:28.870Z,17.50
2022-12-05T23:53:28.746Z,18.50
2022-12-05T23:54:28.666Z,17.90
2022-12-05T23:55:28.578Z,17.30
2022-12-05T23:56:28.493Z,16.80
2022-12-05T23:57:28.399Z,16.90
2022-12-05T23:58:28.318Z,17.70
2022-12-05T23:59:28.217Z,18.60
